createdAt,value
2022-09-23T00:01:46.991Z,81.10
2022-09-23T00:04:13.892Z,80.90
2022-09-23T00:06:41.160Z,81.30
2022-09-23T00:09:07.886Z,81.90
2022-09-23T00:11:34.535Z,81.10
2022-09-23T00:14:01.328Z,80.80
2022-09-23T00:16:29.558Z,81.60
2022-09-23T00:18:56.346Z,80.90
2022-09-23T00:21:23.059Z,81.00
2022-09-23T00:23:49.700Z,81.50
2022-09-23T00:26:17.402Z,81.60
2022-09-23T00:28:44.559Z,82.10
2022-09-23T00:31:13.209Z,82.60
2022-09-23T00:33:40.654Z,82.20
2022-09-23T00:36:08.654Z,82.30
2022-09-23T00:38:35.310Z,81.90
2022-09-23T00:41:02.877Z,82.00
2022-09-23T00:43:40.322Z,82.70
2022-09-23T00:46:09.112Z,81.90
2022-09-23T00:48:37.170Z,81.50
2022-09-23T00:51:05.093Z,82.00
2022-09-23T00:53:31.809Z,81.70
2022-09-23T00:56:01.799Z,81.20
2022-09-23T00:58:31.779Z,81.60
2022-09-23T01:01:02.358Z,82.50
2022-09-23T01:03:30.002Z,82.20
2022-09-23T01:05:57.298Z,81.80
2022-09-23T01:08:24.600Z,82.00
2022-09-23T01:11:06.330Z,81.70
2022-09-23T01:13:42.686Z,82.10
2022-09-23T01:16:20.710Z,82.40
2022-09-23T01:19:13.311Z,82.40
2022-09-23T01:21:52.382Z,82.50
2022-09-23T01:24:32.648Z,82.50
2022-09-23T01:27:04.734Z,83.40
2022-09-23T01:29:49.840Z,83.10
2022-09-23T01:32:20.404Z,83.40
2022-09-23T01:34:49.560Z,82.80
2022-09-23T01:37:16.174Z,83.00
2022-09-23T01:40:03.238Z,82.50
2022-09-23T01:42:34.903Z,78.20
2022-09-23T01:45:16.776Z,75.60
2022-09-23T01:47:50.362Z,74.40
2022-09-23T01:50:37.715Z,72.60
2022-09-23T01:53:11.993Z,71.80
2022-09-23T01:55:41.230Z,70.60
2022-09-23T01:58:10.377Z,69.90
2022-09-23T02:00:40.801Z,69.30
2022-09-23T02:03:10.309Z,68.70
2022-09-23T02:05:39.173Z,68.10
2022-09-23T02:08:08.953Z,67.50
2022-09-23T02:10:47.320Z,67.60
2022-09-23T02:13:20.648Z,68.40
2022-09-23T02:15:50.090Z,67.10
2022-09-23T02:18:21.977Z,66.70
2022-09-23T02:20:50.478Z,66.10
2022-09-23T02:23:20.297Z,65.60
2022-09-23T02:25:56.215Z,65.60
2022-09-23T02:28:49.049Z,65.00
2022-09-23T02:31:21.712Z,65.00
2022-09-23T02:33:57.612Z,65.00
2022-09-23T02:36:53.495Z,64.70
2022-09-23T02:39:22.731Z,64.70
2022-09-23T02:41:55.808Z,64.90
2022-09-23T02:44:23.603Z,64.20
2022-09-23T02:46:53.263Z,64.10
2022-09-23T02:49:21.500Z,63.90
2022-09-23T02:51:48.216Z,63.80
2022-09-23T02:54:17.965Z,63.60
2022-09-23T02:56:44.705Z,63.70
2022-09-23T02:59:12.483Z,63.70
2022-09-23T03:01:58.010Z,63.60
2022-09-23T03:04:39.878Z,63.60
2022-09-23T03:07:32.262Z,63.50
2022-09-23T03:10:05.164Z,63.80
2022-09-23T03:12:43.924Z,63.40
2022-09-23T03:15:16.427Z,63.50
2022-09-23T03:17:46.842Z,63.10
2022-09-23T03:20:18.550Z,62.80
2022-09-23T03:22:46.961Z,62.70
2022-09-23T03:25:15.973Z,62.80
2022-09-23T03:27:43.472Z,63.00
2022-09-23T03:30:10.558Z,63.10
2022-09-23T03:32:38.380Z,63.10
2022-09-23T03:35:05.602Z,63.00
2022-09-23T03:37:35.332Z,62.80
2022-09-23T03:40:08.374Z,62.70
2022-09-23T03:42:35.949Z,62.70
2022-09-23T03:45:06.135Z,62.80
2022-09-23T03:47:32.868Z,62.80
2022-09-23T03:49:59.586Z,62.30
2022-09-23T03:52:26.553Z,63.00
2022-09-23T03:54:53.495Z,62.80
2022-09-23T03:57:22.139Z,62.60
2022-09-23T03:59:50.562Z,62.80
2022-09-23T04:02:18.030Z,62.70
2022-09-23T04:04:44.821Z,62.90
2022-09-23T04:07:11.937Z,63.30
2022-09-23T04:09:39.069Z,63.00
2022-09-23T04:12:06.076Z,62.60
2022-09-23T04:14:32.781Z,62.20
2022-09-23T04:16:59.443Z,62.40
2022-09-23T04:19:26.137Z,62.20
2022-09-23T04:21:52.803Z,62.10
2022-09-23T04:24:19.529Z,62.00
2022-09-23T04:26:46.286Z,62.00
2022-09-23T04:29:12.989Z,61.90
2022-09-23T04:31:39.786Z,61.60
2022-09-23T04:34:06.989Z,62.10
2022-09-23T04:36:33.661Z,62.00
2022-09-23T04:39:00.810Z,61.70
2022-09-23T04:41:27.499Z,61.70
2022-09-23T04:43:54.240Z,61.60
2022-09-23T04:46:20.997Z,61.90
2022-09-23T04:48:47.768Z,62.30
2022-09-23T04:51:18.607Z,62.00
2022-09-23T04:53:46.153Z,62.00
2022-09-23T04:56:14.728Z,62.10
2022-09-23T04:58:41.694Z,62.00
2022-09-23T05:01:17.639Z,62.10
2022-09-23T05:03:45.241Z,61.90
2022-09-23T05:06:15.494Z,61.70
2022-09-23T05:08:46.478Z,61.60
2022-09-23T05:11:13.351Z,61.70
2022-09-23T05:13:40.059Z,61.60
2022-09-23T05:16:08.429Z,61.70
2022-09-23T05:18:35.583Z,61.70
2022-09-23T05:21:02.417Z,61.90
2022-09-23T05:23:29.600Z,62.00
2022-09-23T05:25:57.501Z,61.70
2022-09-23T05:28:24.150Z,61.60
2022-09-23T05:30:53.811Z,61.50
2022-09-23T05:33:20.499Z,62.00
2022-09-23T05:35:48.070Z,62.50
2022-09-23T05:38:16.833Z,62.40
2022-09-23T05:40:43.658Z,62.20
2022-09-23T05:43:10.786Z,62.10
2022-09-23T05:45:37.508Z,62.30
2022-09-23T05:48:04.255Z,61.80
2022-09-23T05:50:30.907Z,62.40
2022-09-23T05:52:57.590Z,62.00
2022-09-23T05:55:24.272Z,62.30
2022-09-23T05:57:50.927Z,62.00
2022-09-23T06:00:17.661Z,62.00
2022-09-23T06:02:44.452Z,61.70
2022-09-23T06:05:12.174Z,60.70
2022-09-23T06:07:38.980Z,60.20
2022-09-23T06:10:06.583Z,60.10
2022-09-23T06:12:34.898Z,59.90
2022-09-23T06:15:01.594Z,59.90
2022-09-23T06:17:28.248Z,60.00
2022-09-23T06:19:54.910Z,59.70
2022-09-23T06:22:24.027Z,60.20
2022-09-23T06:24:50.685Z,59.60
2022-09-23T06:27:17.333Z,59.60
2022-09-23T06:29:44.046Z,60.00
2022-09-23T06:32:10.780Z,61.00
2022-09-23T06:34:47.572Z,59.90
2022-09-23T06:37:20.463Z,59.70
2022-09-23T06:39:47.408Z,59.70
2022-09-23T06:42:16.576Z,60.00
2022-09-23T06:44:43.265Z,59.70
2022-09-23T06:47:09.910Z,59.70
2022-09-23T06:49:36.867Z,59.60
2022-09-23T06:52:05.157Z,59.40
2022-09-23T06:54:31.970Z,58.90
2022-09-23T06:56:58.593Z,59.00
2022-09-23T06:59:25.348Z,59.20
2022-09-23T07:01:52.104Z,58.50
2022-09-23T07:04:19.062Z,58.40
2022-09-23T07:06:45.824Z,59.20
2022-09-23T07:09:12.512Z,59.80
2022-09-23T07:11:39.733Z,59.60
2022-09-23T07:14:06.618Z,58.90
2022-09-23T07:16:33.552Z,58.90
2022-09-23T07:19:00.254Z,57.70
2022-09-23T07:21:27.862Z,57.30
2022-09-23T07:23:55.204Z,58.90
2022-09-23T07:26:22.803Z,61.10
2022-09-23T07:28:53.472Z,59.30
2022-09-23T07:31:33.601Z,58.90
2022-09-23T07:34:03.695Z,59.00
2022-09-23T07:36:34.127Z,59.50
2022-09-23T07:39:03.689Z,60.00
2022-09-23T07:41:31.376Z,59.80
2022-09-23T07:44:00.098Z,59.20
2022-09-23T07:46:28.500Z,59.70
2022-09-23T07:48:55.837Z,59.10
2022-09-23T07:51:24.295Z,59.40
2022-09-23T07:53:51.935Z,59.30
2022-09-23T07:56:19.501Z,56.90
2022-09-23T07:58:46.793Z,58.00
2022-09-23T08:01:13.792Z,58.10
2022-09-23T08:03:40.573Z,57.70
2022-09-23T08:06:08.524Z,57.80
2022-09-23T08:08:35.898Z,58.70
2022-09-23T08:11:06.577Z,58.20
2022-09-23T08:13:33.638Z,58.40
2022-09-23T08:16:00.657Z,57.70
2022-09-23T08:18:27.767Z,58.30
2022-09-23T08:20:54.429Z,59.30
2022-09-23T08:23:21.101Z,58.90
2022-09-23T08:25:48.051Z,59.10
2022-09-23T08:28:16.695Z,58.20
2022-09-23T08:30:44.336Z,58.50
2022-09-23T08:33:12.235Z,57.50
2022-09-23T08:35:39.096Z,57.90
2022-09-23T08:38:06.372Z,58.70
2022-09-23T08:40:43.544Z,58.20
2022-09-23T08:43:24.083Z,57.30
2022-09-23T08:45:52.183Z,55.60
2022-09-23T08:48:23.455Z,55.80
2022-09-23T08:50:54.889Z,56.00
2022-09-23T08:53:29.335Z,55.40
2022-09-23T08:55:58.133Z,54.80
2022-09-23T08:58:34.370Z,54.80
2022-09-23T09:01:19.652Z,53.90
2022-09-23T09:03:49.303Z,53.90
2022-09-23T09:06:18.500Z,54.00
2022-09-23T09:08:47.569Z,54.20
2022-09-23T09:11:15.336Z,53.70
2022-09-23T09:13:48.891Z,54.70
2022-09-23T09:16:15.599Z,54.30
2022-09-23T09:18:48.527Z,54.50
2022-09-23T09:21:16.049Z,52.50
2022-09-23T09:23:56.522Z,53.00
2022-09-23T09:26:23.216Z,51.90
2022-09-23T09:28:52.323Z,52.20
2022-09-23T09:31:32.750Z,52.60
2022-09-23T09:34:07.933Z,51.30
2022-09-23T09:36:38.223Z,51.30
2022-09-23T09:39:05.001Z,51.20
2022-09-23T09:41:31.676Z,50.20
2022-09-23T09:44:00.930Z,50.50
2022-09-23T09:46:50.703Z,50.00
2022-09-23T09:49:31.187Z,49.10
2022-09-23T09:52:14.610Z,47.90
2022-09-23T09:54:41.445Z,49.50
2022-09-23T09:57:16.373Z,48.10
2022-09-23T09:59:44.314Z,48.10
2022-09-23T10:02:34.220Z,48.10
2022-09-23T10:05:02.853Z,47.50
2022-09-23T10:07:32.586Z,47.80
2022-09-23T10:10:31.399Z,47.20
2022-09-23T10:13:02.539Z,46.90
2022-09-23T10:15:31.348Z,47.50
2022-09-23T10:18:01.207Z,46.60
2022-09-23T10:20:39.076Z,46.30
2022-09-23T10:23:06.899Z,46.10
2022-09-23T10:25:34.683Z,44.90
2022-09-23T10:28:21.342Z,44.70
2022-09-23T10:31:04.344Z,45.20
2022-09-23T10:33:31.506Z,43.70
2022-09-23T10:35:58.274Z,42.90
2022-09-23T10:38:25.111Z,42.90
2022-09-23T10:41:11.820Z,44.90
2022-09-23T10:44:16.747Z,44.10
2022-09-23T10:47:09.787Z,43.10
2022-09-23T10:49:36.595Z,43.50
2022-09-23T10:52:22.322Z,42.50
2022-09-23T10:54:57.977Z,44.30
2022-09-23T10:57:42.814Z,44.30
2022-09-23T11:00:28.376Z,42.90
2022-09-23T11:03:04.344Z,42.30
2022-09-23T11:05:36.871Z,43.30
2022-09-23T11:08:33.014Z,43.30
2022-09-23T11:11:09.889Z,42.30
2022-09-23T11:14:05.941Z,41.40
2022-09-23T11:16:45.187Z,41.80
2022-09-23T11:19:14.990Z,42.90
2022-09-23T11:22:00.656Z,43.40
2022-09-23T11:24:34.044Z,41.60
2022-09-23T11:27:12.908Z,40.80
2022-09-23T11:29:42.645Z,40.80
2022-09-23T11:32:29.547Z,42.90
2022-09-23T11:34:59.310Z,41.70
2022-09-23T11:37:38.374Z,42.50
2022-09-23T11:40:12.331Z,42.20
2022-09-23T11:42:41.896Z,41.00
2022-09-23T11:45:15.018Z,41.10
2022-09-23T11:47:51.473Z,40.70
2022-09-23T11:50:19.041Z,41.30
2022-09-23T11:52:48.960Z,43.20
2022-09-23T11:55:22.707Z,42.80
2022-09-23T11:58:22.526Z,42.60
2022-09-23T12:01:07.824Z,41.10
2022-09-23T12:03:43.509Z,40.60
2022-09-23T12:06:15.779Z,41.50
2022-09-23T12:08:43.662Z,41.70
2022-09-23T12:11:29.272Z,41.20
2022-09-23T12:14:14.524Z,41.20
2022-09-23T12:16:44.146Z,40.00
2022-09-23T12:19:20.513Z,40.70
2022-09-23T12:22:10.187Z,40.60
2022-09-23T12:24:55.875Z,40.70
2022-09-23T12:27:28.766Z,41.20
2022-09-23T12:29:57.708Z,41.90
2022-09-23T12:32:25.112Z,40.80
2022-09-23T12:34:52.842Z,41.20
2022-09-23T12:37:24.498Z,40.70
2022-09-23T12:39:51.168Z,39.60
2022-09-23T12:42:19.753Z,40.00
2022-09-23T12:44:47.865Z,40.10
2022-09-23T12:47:14.552Z,40.20
2022-09-23T12:49:42.492Z,41.90
2022-09-23T12:52:12.277Z,40.90
2022-09-23T12:54:40.091Z,40.70
2022-09-23T12:57:39.285Z,41.00
2022-09-23T13:00:15.465Z,40.80
2022-09-23T13:03:08.106Z,41.50
2022-09-23T13:06:13.693Z,41.70
2022-09-23T13:08:41.509Z,40.50
2022-09-23T13:11:17.488Z,41.20
2022-09-23T13:13:45.498Z,41.10
2022-09-23T13:16:25.028Z,40.50
2022-09-23T13:18:54.819Z,40.70
2022-09-23T13:21:41.720Z,39.90
2022-09-23T13:24:20.022Z,40.70
2022-09-23T13:26:48.967Z,40.70
2022-09-23T13:29:37.516Z,40.50
2022-09-23T13:32:05.985Z,38.50
2022-09-23T13:34:34.578Z,39.60
2022-09-23T13:37:22.477Z,39.90
2022-09-23T13:39:50.000Z,39.00
2022-09-23T13:42:27.727Z,39.10
2022-09-23T13:45:00.380Z,39.80
2022-09-23T13:47:28.497Z,39.30
2022-09-23T13:49:55.410Z,39.10
2022-09-23T13:52:24.934Z,38.60
2022-09-23T13:54:51.873Z,40.00
2022-09-23T13:57:24.564Z,40.20
2022-09-23T13:59:51.373Z,39.60
2022-09-23T14:02:18.544Z,40.70
2022-09-23T14:04:45.968Z,41.30
2022-09-23T14:07:14.235Z,40.60
2022-09-23T14:09:42.926Z,41.10
2022-09-23T14:12:10.319Z,40.90
2022-09-23T14:14:38.330Z,40.60
2022-09-23T14:17:05.929Z,40.40
2022-09-23T14:19:33.962Z,39.70
2022-09-23T14:22:00.724Z,40.90
2022-09-23T14:24:34.348Z,40.30
2022-09-23T14:27:10.107Z,40.10
2022-09-23T14:29:38.019Z,39.60
2022-09-23T14:32:06.520Z,40.90
2022-09-23T14:34:40.741Z,40.00
2022-09-23T14:37:44.795Z,38.70
2022-09-23T14:40:17.294Z,38.90
2022-09-23T14:42:51.863Z,38.20
2022-09-23T14:48:10.115Z,39.00
2022-09-23T14:50:37.209Z,39.20
2022-09-23T14:53:04.808Z,38.60
2022-09-23T14:55:31.844Z,39.30
2022-09-23T14:58:05.181Z,39.40
2022-09-23T15:00:31.858Z,38.70
2022-09-23T15:03:03.077Z,38.90
2022-09-23T15:05:47.798Z,38.50
2022-09-23T15:08:22.003Z,38.20
2022-09-23T15:10:49.152Z,38.50
2022-09-23T15:13:17.606Z,38.40
2022-09-23T15:15:44.468Z,38.30
2022-09-23T15:18:31.472Z,39.10
2022-09-23T15:21:02.683Z,38.30
2022-09-23T15:23:32.386Z,38.10
2022-09-23T15:26:02.228Z,38.20
2022-09-23T15:28:28.939Z,38.10
2022-09-23T15:30:56.755Z,39.40
2022-09-23T15:33:28.129Z,39.90
2022-09-23T15:35:54.902Z,40.20
2022-09-23T15:38:22.124Z,40.30
2022-09-23T15:40:49.244Z,40.60
2022-09-23T15:43:21.386Z,41.10
2022-09-23T15:45:58.815Z,41.50
2022-09-23T15:48:27.623Z,41.40
2022-09-23T15:50:54.770Z,42.20
2022-09-23T15:53:23.836Z,41.70
2022-09-23T15:55:51.189Z,41.50
2022-09-23T15:58:20.185Z,42.20
2022-09-23T16:00:54.957Z,42.30
2022-09-23T16:03:25.615Z,41.90
2022-09-23T16:05:52.551Z,42.90
2022-09-23T16:08:24.046Z,43.00
2022-09-23T16:10:51.102Z,42.90
2022-09-23T16:13:18.174Z,43.10
2022-09-23T16:15:45.028Z,43.20
2022-09-23T16:18:12.363Z,43.40
2022-09-23T16:20:41.904Z,43.70
2022-09-23T16:23:14.334Z,44.40
2022-09-23T16:25:40.999Z,44.20
2022-09-23T16:28:07.780Z,44.10
2022-09-23T16:30:34.611Z,43.90
2022-09-23T16:33:01.974Z,44.50
2022-09-23T16:35:32.985Z,45.20
2022-09-23T16:37:59.673Z,45.50
2022-09-23T16:40:26.555Z,46.10
2022-09-23T16:42:55.936Z,46.10
2022-09-23T16:45:23.283Z,46.20
2022-09-23T16:47:51.160Z,46.50
2022-09-23T16:50:19.673Z,46.90
2022-09-23T16:52:46.981Z,47.20
2022-09-23T16:55:14.598Z,47.40
2022-09-23T16:57:41.345Z,48.00
2022-09-23T17:00:28.381Z,47.90
2022-09-23T17:03:13.795Z,48.00
2022-09-23T17:05:40.444Z,48.20
2022-09-23T17:08:07.738Z,48.40
2022-09-23T17:10:34.658Z,48.70
2022-09-23T17:13:01.634Z,49.30
2022-09-23T17:15:28.314Z,49.80
2022-09-23T17:17:55.001Z,50.00
2022-09-23T17:20:21.750Z,50.60
2022-09-23T17:22:50.161Z,50.40
2022-09-23T17:25:16.878Z,50.80
2022-09-23T17:27:43.591Z,50.90
2022-09-23T17:30:10.460Z,51.00
2022-09-23T17:32:38.153Z,51.20
2022-09-23T17:35:04.994Z,51.40
2022-09-23T17:37:32.312Z,51.20
2022-09-23T17:39:59.686Z,51.10
2022-09-23T17:42:27.643Z,51.20
2022-09-23T17:44:58.229Z,51.80
2022-09-23T17:47:25.702Z,51.40
2022-09-23T17:49:52.521Z,50.80
2022-09-23T17:52:19.578Z,50.90
2022-09-23T17:54:46.362Z,51.00
2022-09-23T17:57:13.198Z,51.00
2022-09-23T17:59:39.900Z,50.90
2022-09-23T18:02:06.748Z,51.30
2022-09-23T18:04:33.486Z,51.50
2022-09-23T18:07:00.178Z,51.50
2022-09-23T18:09:27.014Z,51.10
2022-09-23T18:11:53.785Z,51.40
2022-09-23T18:14:21.584Z,54.90
2022-09-23T18:16:49.531Z,56.60
2022-09-23T18:19:17.301Z,59.60
2022-09-23T18:21:46.138Z,60.20
2022-09-23T18:26:59.981Z,60.20
2022-09-23T18:29:27.055Z,59.40
2022-09-23T18:31:53.889Z,59.40
2022-09-23T18:34:20.756Z,58.90
2022-09-23T18:36:47.450Z,58.10
2022-09-23T18:39:14.136Z,58.30
2022-09-23T18:41:41.294Z,57.50
2022-09-23T18:44:08.365Z,57.70
2022-09-23T18:46:35.150Z,58.30
2022-09-23T18:49:20.342Z,58.70
2022-09-23T18:51:57.030Z,59.30
2022-09-23T18:54:24.731Z,58.70
2022-09-23T18:56:52.780Z,58.10
2022-09-23T18:59:21.065Z,58.20
2022-09-23T19:01:49.516Z,58.10
2022-09-23T19:04:17.706Z,58.60
2022-09-23T19:06:44.619Z,59.30
2022-09-23T19:09:12.266Z,60.80
2022-09-23T19:11:38.956Z,62.40
2022-09-23T19:14:06.749Z,62.00
2022-09-23T19:16:34.899Z,61.20
2022-09-23T19:19:02.127Z,60.60
2022-09-23T19:21:29.632Z,60.60
2022-09-23T19:23:57.958Z,60.50
2022-09-23T19:26:27.498Z,60.50
2022-09-23T19:28:55.110Z,61.00
2022-09-23T19:31:23.222Z,61.00
2022-09-23T19:33:56.243Z,60.80
2022-09-23T19:36:23.957Z,61.20
2022-09-23T19:38:52.994Z,60.50
2022-09-23T19:41:20.079Z,60.30
2022-09-23T19:43:48.670Z,60.10
2022-09-23T19:46:15.970Z,60.20
2022-09-23T19:48:42.910Z,61.10
2022-09-23T19:51:09.745Z,63.00
2022-09-23T19:53:36.732Z,64.20
2022-09-23T19:56:04.983Z,65.00
2022-09-23T19:58:33.138Z,65.30
2022-09-23T20:00:59.923Z,65.70
2022-09-23T20:03:27.148Z,65.50
2022-09-23T20:05:54.438Z,65.00
2022-09-23T20:08:21.491Z,65.30
2022-09-23T20:10:49.749Z,67.20
2022-09-23T20:13:17.437Z,66.40
2022-09-23T20:15:48.352Z,65.50
2022-09-23T20:18:15.466Z,65.10
2022-09-23T20:20:42.333Z,64.50
2022-09-23T20:23:09.042Z,64.10
2022-09-23T20:25:54.485Z,64.80
2022-09-23T20:28:21.291Z,64.30
2022-09-23T20:30:48.967Z,65.10
2022-09-23T20:33:15.825Z,65.80
2022-09-23T20:35:44.025Z,66.00
2022-09-23T20:38:10.748Z,66.20
2022-09-23T20:40:38.552Z,68.30
2022-09-23T20:43:05.387Z,68.30
2022-09-23T20:45:32.745Z,68.30
2022-09-23T20:48:00.232Z,68.40
2022-09-23T20:50:26.882Z,67.50
2022-09-23T20:52:53.548Z,67.10
2022-09-23T20:55:20.280Z,67.60
2022-09-23T20:57:50.074Z,67.90
2022-09-23T21:00:18.241Z,69.20
2022-09-23T21:02:45.003Z,69.00
2022-09-23T21:05:11.738Z,69.30
2022-09-23T21:07:38.646Z,69.50
2022-09-23T21:10:07.389Z,70.20
2022-09-23T21:12:35.161Z,70.10
2022-09-23T21:15:02.283Z,69.70
2022-09-23T21:17:29.019Z,69.70
2022-09-23T21:19:55.696Z,69.40
2022-09-23T21:22:22.700Z,71.10
2022-09-23T21:25:26.979Z,71.00
2022-09-23T21:27:37.180Z,71.60
2022-09-23T21:30:04.785Z,71.60
2022-09-23T21:32:31.844Z,71.20
2022-09-23T21:34:58.479Z,70.90
2022-09-23T21:37:26.099Z,71.00
2022-09-23T21:40:11.448Z,71.70
2022-09-23T21:42:38.174Z,71.50
2022-09-23T21:45:05.178Z,71.30
2022-09-23T21:47:32.453Z,71.20
2022-09-23T21:49:59.145Z,72.00
2022-09-23T21:52:25.778Z,72.40
2022-09-23T21:54:52.406Z,72.50
2022-09-23T21:57:19.096Z,72.00
2022-09-23T21:59:47.311Z,72.10
2022-09-23T22:02:13.951Z,73.40
2022-09-23T22:04:40.717Z,73.50
2022-09-23T22:07:07.448Z,72.80
2022-09-23T22:09:34.102Z,73.00
2022-09-23T22:12:11.203Z,73.00
2022-09-23T22:14:39.086Z,72.90
2022-09-23T22:17:06.911Z,71.10
2022-09-23T22:19:35.666Z,69.80
2022-09-23T22:22:05.838Z,68.40
2022-09-23T22:24:32.566Z,67.20
2022-09-23T22:26:59.313Z,66.50
2022-09-23T22:29:44.650Z,66.30
2022-09-23T22:32:30.260Z,67.80
2022-09-23T22:34:57.229Z,68.40
2022-09-23T22:37:25.720Z,69.30
2022-09-23T22:39:52.927Z,69.50
2022-09-23T22:42:22.725Z,69.90
2022-09-23T22:44:50.093Z,69.80
2022-09-23T22:47:18.079Z,69.70
2022-09-23T22:49:45.802Z,70.00
2022-09-23T22:52:12.614Z,69.80
2022-09-23T22:54:39.392Z,70.80
2022-09-23T22:57:07.271Z,72.40
2022-09-23T22:59:34.308Z,72.10
2022-09-23T23:02:02.454Z,72.90
2022-09-23T23:04:29.839Z,72.50
2022-09-23T23:06:58.494Z,74.40
2022-09-23T23:09:25.201Z,73.50
2022-09-23T23:11:51.832Z,74.70
2022-09-23T23:14:18.836Z,74.10
2022-09-23T23:16:46.248Z,74.30
2022-09-23T23:19:17.007Z,74.40
2022-09-23T23:21:44.825Z,74.20
2022-09-23T23:24:17.999Z,73.30
2022-09-23T23:26:44.801Z,72.40
2022-09-23T23:29:12.335Z,71.20
2022-09-23T23:31:39.206Z,70.70
2022-09-23T23:34:08.335Z,70.60
2022-09-23T23:36:35.114Z,70.60
2022-09-23T23:39:01.859Z,71.00
2022-09-23T23:41:28.794Z,70.30
2022-09-23T23:43:58.290Z,70.00
2022-09-23T23:46:26.543Z,69.80
2022-09-23T23:48:54.496Z,69.70
2022-09-23T23:51:21.390Z,69.80
2022-09-23T23:53:48.332Z,70.60
2022-09-23T23:56:17.926Z,70.70
2022-09-23T23:58:45.121Z,70.50
